createdAt,value
2019-05-12T00:00:29.693Z,4.92
2019-05-12T00:02:59.116Z,5.05
2019-05-12T00:05:27.786Z,5.25
2019-05-12T00:07:54.514Z,5.47
2019-05-12T00:10:21.372Z,5.40
2019-05-12T00:12:48.674Z,5.60
2019-05-12T00:15:18.779Z,5.35
2019-05-12T00:17:45.100Z,5.92
2019-05-12T00:20:12.214Z,5.30
2019-05-12T00:22:50.167Z,5.97
2019-05-12T00:25:18.111Z,6.30
2019-05-12T00:27:48.257Z,6.37
2019-05-12T00:30:18.411Z,6.30
2019-05-12T00:32:47.755Z,6.15
2019-05-12T00:35:18.260Z,6.25
2019-05-12T00:37:45.460Z,6.37
2019-05-12T00:40:12.450Z,6.00
2019-05-12T00:42:39.898Z,6.87
2019-05-12T00:45:08.083Z,6.47
2019-05-12T00:47:35.791Z,6.35
2019-05-12T00:50:04.903Z,6.58
2019-05-12T00:52:32.001Z,7.05
2019-05-12T00:54:59.058Z,6.80
2019-05-12T00:57:25.856Z,6.90
2019-05-12T00:59:52.723Z,7.15
2019-05-12T01:02:19.787Z,6.83
2019-05-12T01:04:48.698Z,6.70
2019-05-12T01:07:15.419Z,8.23
2019-05-12T01:09:42.939Z,7.90
2019-05-12T01:12:09.706Z,7.30
2019-05-12T01:14:38.392Z,7.67
2019-05-12T01:17:05.300Z,7.45
2019-05-12T01:19:33.109Z,8.15
2019-05-12T01:22:00.481Z,8.03
2019-05-12T01:24:28.238Z,8.15
2019-05-12T01:26:58.581Z,7.28
2019-05-12T01:29:28.017Z,8.18
2019-05-12T01:32:14.116Z,7.95
2019-05-12T01:34:40.914Z,8.60
2019-05-12T01:37:23.100Z,8.90
2019-05-12T01:39:52.122Z,8.95
2019-05-12T01:42:19.196Z,9.23
2019-05-12T01:44:48.154Z,7.80
2019-05-12T01:47:18.797Z,8.80
2019-05-12T01:49:45.843Z,8.90
2019-05-12T01:52:13.186Z,9.20
2019-05-12T01:54:42.808Z,9.28
2019-05-12T01:57:09.660Z,8.90
2019-05-12T01:59:38.150Z,8.90
2019-05-12T02:02:05.684Z,9.73
2019-05-12T02:04:37.962Z,9.20
2019-05-12T02:07:08.328Z,9.90
2019-05-12T02:09:38.729Z,9.95
2019-05-12T02:12:08.248Z,9.40
2019-05-12T02:14:35.182Z,9.53
2019-05-12T02:17:01.948Z,10.05
2019-05-12T02:19:28.712Z,10.15
2019-05-12T02:21:57.787Z,10.32
2019-05-12T02:24:27.348Z,10.08
2019-05-12T02:26:52.860Z,9.35
2019-05-12T02:29:20.003Z,9.83
2019-05-12T02:31:50.038Z,9.25
2019-05-12T02:34:16.279Z,10.48
2019-05-12T02:36:44.769Z,10.65
2019-05-12T02:39:14.998Z,9.73
2019-05-12T02:41:41.131Z,10.13
2019-05-12T02:44:07.903Z,10.13
2019-05-12T02:46:35.084Z,10.60
2019-05-12T02:49:04.885Z,10.28
2019-05-12T02:51:35.185Z,9.83
2019-05-12T02:54:01.697Z,10.70
2019-05-12T02:56:30.210Z,11.55
2019-05-12T02:59:00.124Z,10.43
2019-05-12T03:01:27.629Z,10.88
2019-05-12T03:03:57.201Z,10.85
2019-05-12T03:06:25.215Z,9.48
2019-05-12T03:08:55.155Z,10.08
2019-05-12T03:11:27.171Z,10.90
2019-05-12T03:13:54.853Z,10.43
2019-05-12T03:16:25.391Z,10.95
2019-05-12T03:18:50.593Z,10.32
2019-05-12T03:21:17.351Z,10.40
2019-05-12T03:23:44.972Z,10.98
2019-05-12T03:26:15.368Z,10.93
2019-05-12T03:28:44.371Z,10.82
2019-05-12T03:31:09.996Z,10.90
2019-05-12T03:33:43.696Z,11.22
2019-05-12T03:36:08.976Z,10.50
2019-05-12T03:38:36.002Z,10.13
2019-05-12T03:41:05.318Z,10.08
2019-05-12T03:43:35.089Z,10.05
2019-05-12T03:46:04.937Z,11.18
2019-05-12T03:48:29.904Z,10.10
2019-05-12T03:50:56.748Z,10.48
2019-05-12T03:53:24.775Z,10.43
2019-05-12T03:55:55.264Z,10.70
2019-05-12T03:58:21.082Z,9.93
2019-05-12T04:00:48.162Z,11.05
2019-05-12T04:03:15.548Z,10.98
2019-05-12T04:05:45.259Z,10.95
2019-05-12T04:08:11.334Z,10.93
2019-05-12T04:10:38.142Z,10.35
2019-05-12T04:13:05.061Z,11.75
2019-05-12T04:15:34.706Z,11.15
2019-05-12T04:18:00.827Z,11.78
2019-05-12T04:20:27.625Z,11.30
2019-05-12T04:22:54.844Z,11.15
2019-05-12T04:25:24.990Z,10.68
2019-05-12T04:27:54.076Z,11.22
2019-05-12T04:30:20.340Z,10.05
2019-05-12T04:32:47.566Z,11.00
2019-05-12T04:35:15.302Z,11.03
2019-05-12T04:37:44.915Z,11.33
2019-05-12T04:40:14.577Z,11.25
2019-05-12T04:42:40.570Z,10.95
2019-05-12T04:45:07.828Z,11.33
2019-05-12T04:47:35.532Z,11.05
2019-05-12T04:50:05.384Z,10.82
2019-05-12T04:52:35.135Z,10.88
2019-05-12T04:55:04.685Z,10.78
2019-05-12T04:57:34.353Z,10.48
2019-05-12T05:00:04.818Z,10.58
2019-05-12T05:02:30.761Z,10.85
2019-05-12T05:04:57.655Z,10.23
2019-05-12T05:07:24.596Z,11.43
2019-05-12T05:09:51.386Z,10.28
2019-05-12T05:12:18.176Z,11.08
2019-05-12T05:14:44.931Z,10.85
2019-05-12T05:17:11.775Z,10.43
2019-05-12T05:19:38.786Z,10.60
2019-05-12T05:22:05.550Z,10.08
2019-05-12T05:24:33.920Z,10.08
2019-05-12T05:27:00.914Z,9.50
2019-05-12T05:29:27.720Z,9.10
2019-05-12T05:31:54.642Z,9.70
2019-05-12T05:34:23.462Z,8.95
2019-05-12T05:36:51.051Z,9.28
2019-05-12T05:39:19.340Z,9.05
2019-05-12T05:41:50.926Z,8.13
2019-05-12T05:44:14.779Z,7.72
2019-05-12T05:46:47.746Z,8.40
2019-05-12T05:49:10.675Z,8.43
2019-05-12T05:51:44.407Z,7.30
2019-05-12T05:54:07.285Z,7.42
2019-05-12T05:56:42.452Z,7.15
2019-05-12T05:59:04.597Z,7.45
2019-05-12T06:01:34.500Z,6.97
2019-05-12T06:04:04.258Z,6.40
2019-05-12T06:06:29.300Z,6.10
2019-05-12T06:08:57.372Z,5.87
2019-05-12T06:11:28.345Z,5.92
2019-05-12T06:13:54.690Z,5.80
2019-05-12T06:16:24.916Z,5.70
2019-05-12T06:18:50.420Z,5.30
2019-05-12T06:21:17.396Z,6.15
2019-05-12T06:23:44.402Z,5.78
2019-05-12T06:26:13.821Z,6.03
2019-05-12T06:28:41.272Z,5.40
2019-05-12T06:31:08.579Z,5.58
2019-05-12T06:33:36.998Z,5.78
2019-05-12T06:36:07.067Z,5.72
2019-05-12T06:38:37.194Z,5.53
2019-05-12T06:41:03.602Z,6.33
2019-05-12T06:43:35.277Z,5.12
2019-05-12T06:45:58.989Z,5.70
2019-05-12T06:48:30.174Z,6.03
2019-05-12T06:50:54.666Z,5.95
2019-05-12T06:53:29.026Z,5.75
2019-05-12T06:55:50.156Z,5.58
2019-05-12T06:58:26.032Z,5.30
2019-05-12T07:00:46.329Z,5.12
2019-05-12T07:03:14.279Z,6.00
2019-05-12T07:05:43.245Z,5.67
2019-05-12T07:08:10.722Z,5.75
2019-05-12T07:10:43.357Z,5.92
2019-05-12T07:13:06.414Z,6.00
2019-05-12T07:15:35.580Z,5.45
2019-05-12T07:18:10.543Z,5.58
2019-05-12T07:20:39.154Z,6.03
2019-05-12T07:23:06.424Z,5.70
2019-05-12T07:25:36.268Z,5.70
2019-05-12T07:28:07.271Z,5.87
2019-05-12T07:30:35.021Z,6.10
2019-05-12T07:33:01.503Z,5.45
2019-05-12T07:35:33.812Z,5.40
2019-05-12T07:38:01.059Z,5.67
2019-05-12T07:40:30.123Z,5.55
2019-05-12T07:42:58.123Z,5.60
2019-05-12T07:45:25.507Z,5.15
2019-05-12T07:47:54.104Z,5.75
2019-05-12T07:50:26.931Z,5.40
2019-05-12T07:52:51.151Z,5.53
2019-05-12T07:55:17.988Z,4.97
2019-05-12T07:57:54.734Z,5.42
2019-05-12T08:00:25.775Z,4.80
2019-05-12T08:02:48.407Z,4.83
2019-05-12T08:05:20.109Z,5.50
2019-05-12T08:07:44.587Z,4.80
2019-05-12T08:10:19.963Z,5.37
2019-05-12T08:12:44.340Z,5.00
2019-05-12T08:15:13.598Z,4.85
2019-05-12T08:17:40.353Z,5.17
2019-05-12T08:20:13.690Z,4.90
2019-05-12T08:22:40.980Z,5.30
2019-05-12T08:25:08.443Z,4.40
2019-05-12T08:27:39.068Z,4.47
2019-05-12T08:30:06.283Z,4.90
2019-05-12T08:32:33.853Z,4.60
2019-05-12T08:35:00.857Z,4.92
2019-05-12T08:37:27.640Z,4.58
2019-05-12T08:40:03.457Z,4.50
2019-05-12T08:42:23.816Z,5.12
2019-05-12T08:44:50.802Z,4.47
2019-05-12T08:47:17.573Z,4.80
2019-05-12T08:49:53.409Z,4.78
2019-05-12T08:52:14.192Z,4.80
2019-05-12T08:54:45.417Z,4.33
2019-05-12T08:57:09.927Z,4.70
2019-05-12T08:59:36.692Z,5.10
2019-05-12T09:02:07.377Z,4.70
2019-05-12T09:04:33.896Z,5.10
2019-05-12T09:07:01.740Z,4.70
2019-05-12T09:09:28.491Z,5.03
2019-05-12T09:11:55.722Z,4.95
2019-05-12T09:14:23.899Z,4.85
2019-05-12T09:16:56.003Z,4.60
2019-05-12T09:19:24.106Z,4.12
2019-05-12T09:21:48.317Z,4.72
2019-05-12T09:24:22.063Z,4.22
2019-05-12T09:26:43.869Z,4.30
2019-05-12T09:29:10.607Z,4.60
2019-05-12T09:31:37.679Z,4.00
2019-05-12T09:34:11.495Z,4.03
2019-05-12T09:36:34.066Z,4.15
2019-05-12T09:39:01.823Z,4.05
2019-05-12T09:41:35.938Z,4.50
2019-05-12T09:44:01.266Z,4.45
2019-05-12T09:46:28.433Z,4.03
2019-05-12T09:48:56.575Z,5.10
2019-05-12T09:51:23.909Z,4.53
2019-05-12T09:53:55.333Z,4.92
2019-05-12T09:56:23.831Z,4.72
2019-05-12T09:58:59.018Z,4.33
2019-05-12T10:01:19.664Z,3.80
2019-05-12T10:03:46.669Z,3.35
2019-05-12T10:06:17.898Z,4.00
2019-05-12T10:08:43.574Z,4.30
2019-05-12T10:11:15.766Z,4.30
2019-05-12T10:13:41.531Z,4.22
2019-05-12T10:16:09.010Z,4.00
2019-05-12T10:18:35.923Z,3.80
2019-05-12T10:21:03.058Z,4.10
2019-05-12T10:23:29.929Z,4.20
2019-05-12T10:26:01.568Z,4.70
2019-05-12T10:28:25.722Z,3.90
2019-05-12T10:30:56.561Z,4.72
2019-05-12T10:33:23.294Z,4.12
2019-05-12T10:35:50.211Z,4.50
2019-05-12T10:38:16.979Z,4.75
2019-05-12T10:40:44.521Z,4.37
2019-05-12T10:43:12.702Z,4.53
2019-05-12T10:45:39.640Z,4.35
2019-05-12T10:48:06.517Z,3.98
2019-05-12T10:50:34.306Z,4.35
2019-05-12T10:53:04.211Z,4.37
2019-05-12T10:55:30.719Z,3.90
2019-05-12T10:58:01.330Z,4.50
2019-05-12T11:00:27.603Z,4.72
2019-05-12T11:02:54.808Z,4.62
2019-05-12T11:05:23.794Z,3.92
2019-05-12T11:07:50.346Z,4.22
2019-05-12T11:10:20.048Z,4.25
2019-05-12T11:12:47.258Z,3.17
2019-05-12T11:15:15.247Z,4.05
2019-05-12T11:17:53.192Z,4.50
2019-05-12T11:20:19.961Z,4.25
2019-05-12T11:22:46.937Z,4.42
2019-05-12T11:25:14.491Z,4.15
2019-05-12T11:27:43.710Z,4.28
2019-05-12T11:30:13.198Z,4.67
2019-05-12T11:32:40.252Z,4.30
2019-05-12T11:35:07.591Z,4.67
2019-05-12T11:37:34.542Z,4.65
2019-05-12T11:40:01.311Z,4.30
2019-05-12T11:42:28.175Z,4.75
2019-05-12T11:44:55.458Z,4.70
2019-05-12T11:47:24.091Z,4.33
2019-05-12T11:49:53.527Z,4.62
2019-05-12T11:52:20.517Z,4.30
2019-05-12T11:54:51.137Z,4.70
2019-05-12T11:57:20.088Z,4.80
2019-05-12T11:59:58.037Z,5.25
2019-05-12T12:02:20.091Z,4.22
2019-05-12T12:04:45.308Z,4.87
2019-05-12T12:07:14.408Z,4.85
2019-05-12T12:09:43.830Z,5.12
2019-05-12T12:12:13.586Z,4.75
2019-05-12T12:14:46.232Z,4.50
2019-05-12T12:17:09.400Z,4.90
2019-05-12T12:19:43.651Z,4.05
2019-05-12T12:22:05.140Z,4.15
2019-05-12T12:24:33.255Z,4.10
2019-05-12T12:27:00.486Z,4.55
2019-05-12T12:29:27.268Z,4.55
2019-05-12T12:31:55.589Z,4.53
2019-05-12T12:34:25.104Z,3.72
2019-05-12T12:36:51.432Z,4.33
2019-05-12T12:39:19.340Z,4.28
2019-05-12T12:41:56.345Z,4.22
2019-05-12T12:44:15.365Z,4.20
2019-05-12T12:46:44.063Z,3.80
2019-05-12T12:49:13.761Z,4.40
2019-05-12T12:51:40.184Z,3.72
2019-05-12T12:54:07.195Z,3.67
2019-05-12T12:56:34.158Z,3.90
2019-05-12T12:59:10.254Z,4.53
2019-05-12T13:01:35.704Z,4.10
2019-05-12T13:04:04.753Z,3.15
2019-05-12T13:06:31.463Z,3.60
2019-05-12T13:08:58.343Z,3.37
2019-05-12T13:11:33.238Z,3.85
2019-05-12T13:13:53.823Z,3.50
2019-05-12T13:16:20.608Z,3.27
2019-05-12T13:18:47.534Z,3.70
2019-05-12T13:21:14.298Z,3.70
2019-05-12T13:23:41.405Z,3.70
2019-05-12T13:26:08.752Z,3.08
2019-05-12T13:28:35.758Z,4.28
2019-05-12T13:31:11.017Z,5.30
2019-05-12T13:33:33.478Z,4.50
2019-05-12T13:36:01.021Z,3.35
2019-05-12T13:38:30.471Z,3.22
2019-05-12T13:40:56.530Z,2.98
2019-05-12T13:43:23.922Z,3.70
2019-05-12T13:45:53.239Z,3.72
2019-05-12T13:48:24.064Z,3.00
2019-05-12T13:50:53.713Z,4.45
2019-05-12T13:53:21.450Z,2.58
2019-05-12T13:55:49.721Z,2.10
2019-05-12T13:58:17.707Z,2.87
2019-05-12T14:00:50.857Z,2.50
2019-05-12T14:03:13.991Z,2.50
2019-05-12T14:05:50.424Z,2.17
2019-05-12T14:08:10.226Z,1.87
2019-05-12T14:10:37.615Z,2.22
2019-05-12T14:13:05.722Z,1.80
2019-05-12T14:15:34.156Z,2.55
2019-05-12T14:18:03.285Z,2.62
2019-05-12T14:20:30.033Z,2.75
2019-05-12T14:22:56.784Z,2.50
2019-05-12T14:25:29.850Z,1.98
2019-05-12T14:27:53.589Z,2.00
2019-05-12T14:30:21.162Z,2.40
2019-05-12T14:32:49.242Z,2.10
2019-05-12T14:35:17.546Z,1.80
2019-05-12T14:37:45.935Z,2.02
2019-05-12T14:40:13.513Z,1.80
2019-05-12T14:42:40.579Z,2.00
2019-05-12T14:45:07.899Z,2.83
2019-05-12T14:47:34.630Z,2.52
2019-05-12T14:50:03.797Z,2.10
2019-05-12T14:52:33.277Z,2.10
2019-05-12T14:55:00.344Z,1.82
2019-05-12T14:57:29.360Z,2.12
2019-05-12T14:59:56.009Z,2.00
2019-05-12T15:02:27.726Z,2.00
2019-05-12T15:04:54.130Z,1.80
2019-05-12T15:07:20.772Z,2.08
2019-05-12T15:09:47.577Z,2.40
2019-05-12T15:12:14.496Z,1.85
2019-05-12T15:14:43.662Z,2.35
2019-05-12T15:17:13.874Z,2.40
2019-05-12T15:19:40.352Z,2.00
2019-05-12T15:22:11.817Z,2.27
2019-05-12T15:24:35.969Z,1.90
2019-05-12T15:27:03.904Z,2.33
2019-05-12T15:29:30.800Z,1.92
2019-05-12T15:31:57.637Z,1.90
2019-05-12T15:34:24.386Z,2.05
2019-05-12T15:36:55.458Z,2.05
2019-05-12T15:39:20.515Z,1.85
2019-05-12T15:41:51.140Z,1.90
2019-05-12T15:44:24.798Z,2.00
2019-05-12T15:46:48.228Z,2.30
2019-05-12T15:49:35.190Z,2.47
2019-05-12T15:52:03.523Z,3.40
2019-05-12T15:54:35.802Z,2.67
2019-05-12T15:57:00.230Z,3.00
2019-05-12T15:59:27.119Z,2.50
2019-05-12T16:02:08.383Z,2.30
2019-05-12T16:04:23.057Z,2.37
2019-05-12T16:06:57.088Z,2.30
2019-05-12T16:09:24.672Z,2.08
2019-05-12T16:11:51.437Z,2.30
2019-05-12T16:14:20.364Z,3.40
2019-05-12T16:16:47.226Z,3.17
2019-05-12T16:19:14.680Z,3.10
2019-05-12T16:21:45.585Z,2.20
2019-05-12T16:24:15.462Z,2.55
2019-05-12T16:26:51.576Z,2.87
2019-05-12T16:29:13.922Z,2.80
2019-05-12T16:31:45.567Z,2.00
2019-05-12T16:34:09.639Z,2.45
2019-05-12T16:36:41.234Z,3.15
2019-05-12T16:39:08.357Z,3.10
2019-05-12T16:41:35.293Z,3.10
2019-05-12T16:44:09.568Z,2.85
2019-05-12T16:46:31.374Z,2.77
2019-05-12T16:48:58.448Z,2.37
2019-05-12T16:51:26.483Z,2.50
2019-05-12T16:53:54.048Z,2.80
2019-05-12T16:56:28.067Z,2.08
2019-05-12T16:58:49.690Z,1.70
2019-05-12T17:01:24.325Z,1.62
2019-05-12T17:03:46.756Z,2.15
2019-05-12T17:06:14.402Z,1.57
2019-05-12T17:08:43.683Z,1.72
2019-05-12T17:11:25.375Z,1.92
2019-05-12T17:13:39.376Z,1.90
2019-05-12T17:16:06.403Z,1.82
2019-05-12T17:18:33.978Z,2.08
2019-05-12T17:21:01.104Z,1.90
2019-05-12T17:23:28.354Z,2.00
2019-05-12T17:25:58.994Z,2.37
2019-05-12T17:28:26.259Z,3.10
2019-05-12T17:30:54.390Z,4.20
2019-05-12T17:33:23.119Z,4.95
2019-05-12T17:35:50.453Z,3.60
2019-05-12T17:38:19.738Z,3.20
2019-05-12T17:40:50.276Z,3.65
2019-05-12T17:43:15.049Z,3.33
2019-05-12T17:45:44.150Z,3.45
2019-05-12T17:48:10.803Z,3.08
2019-05-12T17:50:40.547Z,3.20
2019-05-12T17:53:07.290Z,2.72
2019-05-12T17:55:34.081Z,2.90
2019-05-12T17:58:01.021Z,3.20
2019-05-12T18:00:28.338Z,2.20
2019-05-12T18:03:14.090Z,2.22
2019-05-12T18:05:23.987Z,3.25
2019-05-12T18:07:53.194Z,2.80
2019-05-12T18:10:20.232Z,3.80
2019-05-12T18:12:48.295Z,4.10
2019-05-12T18:15:16.000Z,3.90
2019-05-12T18:17:45.245Z,3.02
2019-05-12T18:20:14.403Z,3.55
2019-05-12T18:22:45.041Z,3.67
2019-05-12T18:25:11.155Z,4.10
2019-05-12T18:27:44.543Z,3.87
2019-05-12T18:30:08.681Z,3.70
2019-05-12T18:32:35.489Z,3.20
2019-05-12T18:35:06.169Z,2.58
2019-05-12T18:37:34.412Z,2.50
2019-05-12T18:40:03.956Z,2.00
2019-05-12T18:42:33.597Z,2.17
2019-05-12T18:45:02.367Z,2.20
2019-05-12T18:47:34.189Z,2.12
2019-05-12T18:49:58.963Z,2.22
2019-05-12T18:52:29.181Z,2.83
2019-05-12T18:54:57.273Z,2.70
2019-05-12T18:57:26.200Z,2.40
2019-05-12T18:59:55.166Z,2.52
2019-05-12T19:02:27.920Z,2.65
2019-05-12T19:04:55.645Z,2.45
2019-05-12T19:07:38.646Z,2.45
2019-05-12T19:09:51.568Z,2.90
2019-05-12T19:12:22.506Z,2.95
2019-05-12T19:14:47.601Z,2.62
2019-05-12T19:17:14.378Z,2.60
2019-05-12T19:19:41.671Z,2.30
2019-05-12T19:22:09.702Z,2.58
2019-05-12T19:24:37.348Z,2.35
2019-05-12T19:27:04.459Z,2.50
2019-05-12T19:29:38.247Z,2.10
2019-05-12T19:32:00.388Z,2.27
2019-05-12T19:34:31.786Z,2.22
2019-05-12T19:36:56.459Z,2.10
2019-05-12T19:39:25.408Z,1.70
2019-05-12T19:41:54.394Z,2.30
2019-05-12T19:44:26.518Z,2.10
2019-05-12T19:46:53.988Z,2.65
2019-05-12T19:49:26.164Z,2.22
2019-05-12T19:51:51.040Z,3.00
2019-05-12T19:54:19.370Z,2.33
2019-05-12T19:56:47.289Z,2.20
2019-05-12T19:59:14.769Z,2.72
2019-05-12T20:01:44.358Z,3.02
2019-05-12T20:04:10.983Z,2.52
2019-05-12T20:06:37.916Z,2.67
2019-05-12T20:09:10.122Z,2.87
2019-05-12T20:11:34.319Z,2.20
2019-05-12T20:14:01.138Z,2.30
2019-05-12T20:16:30.726Z,2.37
2019-05-12T20:18:58.066Z,2.45
2019-05-12T20:21:25.881Z,2.50
2019-05-12T20:23:54.402Z,2.27
2019-05-12T20:26:23.569Z,2.50
2019-05-12T20:28:53.391Z,2.47
2019-05-12T20:31:23.475Z,2.70
2019-05-12T20:33:48.907Z,2.40
2019-05-12T20:36:20.512Z,2.52
2019-05-12T20:38:44.603Z,2.40
2019-05-12T20:41:22.364Z,2.40
2019-05-12T20:43:42.030Z,2.37
2019-05-12T20:46:13.090Z,2.60
2019-05-12T20:48:37.702Z,2.22
2019-05-12T20:51:08.668Z,2.37
2019-05-12T20:53:36.446Z,2.42
2019-05-12T20:56:03.686Z,2.30
2019-05-12T20:58:35.214Z,2.30
2019-05-12T21:01:04.518Z,2.80
2019-05-12T21:03:30.349Z,2.80
2019-05-12T21:06:01.442Z,2.45
2019-05-12T21:08:26.385Z,3.00
2019-05-12T21:10:54.230Z,3.22
2019-05-12T21:13:29.695Z,2.90
2019-05-12T21:15:53.738Z,2.72
2019-05-12T21:18:19.861Z,2.60
2019-05-12T21:20:52.301Z,2.50
2019-05-12T21:23:17.482Z,2.85
2019-05-12T21:25:52.181Z,2.50
2019-05-12T21:28:14.811Z,2.33
2019-05-12T21:30:42.461Z,2.87
2019-05-12T21:33:10.652Z,2.60
2019-05-12T21:35:40.532Z,2.95
2019-05-12T21:38:06.210Z,2.67
2019-05-12T21:40:35.093Z,2.85
2019-05-12T21:43:04.084Z,2.95
2019-05-12T21:45:33.875Z,3.05
2019-05-12T21:48:00.989Z,2.72
2019-05-12T21:50:32.633Z,2.70
2019-05-12T21:52:59.984Z,2.98
2019-05-12T21:55:26.821Z,2.72
2019-05-12T21:57:53.997Z,2.25
2019-05-12T22:00:31.214Z,2.47
2019-05-12T22:03:02.663Z,2.52
2019-05-12T22:05:46.915Z,2.70
2019-05-12T22:07:56.330Z,2.80
2019-05-12T22:10:26.770Z,2.80
2019-05-12T22:12:53.339Z,2.90
2019-05-12T22:15:24.274Z,2.52
2019-05-12T22:17:58.535Z,2.85
2019-05-12T22:20:25.885Z,2.90
2019-05-12T22:22:52.826Z,2.80
2019-05-12T22:25:19.636Z,2.55
2019-05-12T22:27:46.900Z,2.52
2019-05-12T22:30:14.313Z,3.02
2019-05-12T22:32:43.352Z,2.58
2019-05-12T22:35:13.187Z,2.40
2019-05-12T22:37:39.710Z,2.40
2019-05-12T22:40:15.077Z,2.45
2019-05-12T22:42:35.358Z,2.40
2019-05-12T22:45:05.947Z,2.40
2019-05-12T22:47:33.530Z,2.30
2019-05-12T22:50:00.788Z,2.50
2019-05-12T22:52:27.579Z,2.50
2019-05-12T22:54:54.317Z,2.55
2019-05-12T22:57:21.199Z,2.47
2019-05-12T22:59:48.564Z,2.20
2019-05-12T23:02:24.559Z,3.02
2019-05-12T23:04:44.411Z,1.80
2019-05-12T23:07:13.841Z,2.22
2019-05-12T23:09:40.649Z,2.22
2019-05-12T23:12:09.664Z,2.17
2019-05-12T23:14:37.586Z,2.47
2019-05-12T23:17:07.532Z,2.40
2019-05-12T23:19:34.794Z,2.30
2019-05-12T23:22:03.523Z,2.42
2019-05-12T23:24:37.299Z,2.40
2019-05-12T23:27:04.639Z,2.20
2019-05-12T23:29:31.232Z,2.30
2019-05-12T23:32:11.561Z,2.25
2019-05-12T23:34:34.806Z,2.40
2019-05-12T23:37:03.875Z,2.70
2019-05-12T23:39:32.545Z,2.60
2019-05-12T23:41:59.582Z,2.60
2019-05-12T23:44:26.740Z,2.15
2019-05-12T23:46:56.017Z,2.22
2019-05-12T23:49:24.454Z,2.30
2019-05-12T23:51:54.154Z,2.00
2019-05-12T23:54:20.800Z,2.10
2019-05-12T23:56:47.831Z,2.42
2019-05-12T23:59:14.706Z,2.10
